Aérodrome :
LOGIN :

S'inscrire | Disclaimer

   EN    FR    IT 

 










Légende :    VFR   VFR Marginal   IFR   IFR Intensif   IFR Très Intensif
Visi : 
Plafond : 
>= 8 km
>= 3000ft
5 à 8 km
1000 à 3000 ft
1500m à 5 km
500 à 1000 ft
800 à 1500m
200 à 500 ft
< 800m
< 200 ft
Symboles :   Orages  Brouillard  Fortes neiges  Fortes précipitations  Vent > 20 kt
SIGMETs :   Divers  Orages  Givrage  Turbulence  Onde Orograph.  Cendres Volcan.






- Altitude de l'aérodrome : 502 ft
- Code IATA : ORK


EICK - Cork

DERNIER METAR :
  • 140830Z 34016KT 9999 FEW013 04/01 Q1004 NOSIG

METARs EXPIRÉS :
  • 140800Z 35016KT 9999 FEW012 SCT016 04/01 Q1003 NOSIG
  • 140730Z 35020KT 9999 FEW013 SCT018 04/01 Q1002 NOSIG
  • 140700Z 35021KT 9999 FEW012 SCT016 BKN240 04/02 Q1001 NOSIG
  • 140630Z 35019KT 9999 SCT014 BKN230 04/02 Q1001 NOSIG
  • 140600Z 35019KT 9999 FEW015 BKN220 04/02 Q0999 NOSIG

TAF TAF EICK
Valide du 14 à 06h jusqu'au 15 à 06h UTC


140500Z 1406/1506 36016G26KT 9999 FEW015 SCT030
BECMG 1406/1408 35022G36KT
BECMG 1415/1418 34016G26KT
BECMG 1502/1505 34015KT



MET'MAP, la Météo Aéronautique d'un coup d'oeil ! - Copyright ORBIFLY Décembre 2007 - Disclaimer

ORBIFLY MET'MAP TEAM :

Programmation & Développement : Alexandra Zaïnal
Conception & Développement : Baudouin d'Aumeries
Co-Programmation & Développement : Marc-Olivier Méhu
Soutien technique & logistique : Manuel Goepfert

Contact : metmap@orbifly.com




SOURCES & CREDITS :

   NOAA